sensor_id;sensor_type;location;lat;lon;timestamp;temperature;humidity
30134;DHT22;16946;49.984;10.672;2023-02-26T00:00:18;-0.60;99.90
30134;DHT22;16946;49.984;10.672;2023-02-26T00:00:50;-0.60;99.90
30134;DHT22;16946;49.984;10.672;2023-02-26T00:01:26;-0.60;99.90
30134;DHT22;16946;49.984;10.672;2023-02-26T00:01:57;-0.60;99.90
30134;DHT22;16946;49.984;10.672;2023-02-26T00:02:30;-0.60;99.90
30134;DHT22;16946;49.984;10.672;2023-02-26T00:03:00;-0.60;99.90
30134;DHT22;16946;49.984;10.672;2023-02-26T00:03:31;-0.60;99.90
30134;DHT22;16946;49.984;10.672;2023-02-26T00:04:03;-0.60;99.90
30134;DHT22;16946;49.984;10.672;2023-02-26T00:04:35;-0.70;99.90
30134;DHT22;16946;49.984;10.672;2023-02-26T00:05:06;-0.70;99.90
30134;DHT22;16946;49.984;10.672;2023-02-26T00:05:37;-0.80;99.90
30134;DHT22;16946;49.984;10.672;2023-02-26T00:06:07;-0.90;99.90
30134;DHT22;16946;49.984;10.672;2023-02-26T00:06:39;-0.90;99.90
30134;DHT22;16946;49.984;10.672;2023-02-26T00:07:21;-1.00;99.90
30134;DHT22;16946;49.984;10.672;2023-02-26T00:07:52;-1.00;99.90
30134;DHT22;16946;49.984;10.672;2023-02-26T00:08:22;-1.10;99.90
30134;DHT22;16946;49.984;10.672;2023-02-26T00:08:53;-1.10;99.90
30134;DHT22;16946;49.984;10.672;2023-02-26T00:09:24;-1.20;99.90
30134;DHT22;16946;49.984;10.672;2023-02-26T00:09:55;-1.30;99.90
30134;DHT22;16946;49.984;10.672;2023-02-26T00:10:25;-1.30;99.90
30134;DHT22;16946;49.984;10.672;2023-02-26T00:10:56;-1.30;99.90
30134;DHT22;16946;49.984;10.672;2023-02-26T00:11:27;-1.30;99.90
30134;DHT22;16946;49.984;10.672;2023-02-26T00:11:59;-1.30;99.90
30134;DHT22;16946;49.984;10.672;2023-02-26T00:12:30;-1.30;99.90
30134;DHT22;16946;49.984;10.672;2023-02-26T00:13:01;-1.30;99.90
30134;DHT22;16946;49.984;10.672;2023-02-26T00:13:31;-1.20;99.90
30134;DHT22;16946;49.984;10.672;2023-02-26T00:14:02;-1.30;99.90
30134;DHT22;16946;49.984;10.672;2023-02-26T00:14:33;-1.30;99.90
30134;DHT22;16946;49.984;10.672;2023-02-26T00:15:04;-1.30;99.90
30134;DHT22;16946;49.984;10.672;2023-02-26T00:15:35;-1.40;99.90
30134;DHT22;16946;49.984;10.672;2023-02-26T00:16:28;-1.40;99.90
30134;DHT22;16946;49.984;10.672;2023-02-26T00:18:03;-1.50;99.90
30134;DHT22;16946;49.984;10.672;2023-02-26T00:18:35;-1.50;99.90
30134;DHT22;16946;49.984;10.672;2023-02-26T00:19:07;-1.50;99.90
30134;DHT22;16946;49.984;10.672;2023-02-26T00:19:40;-1.60;99.90
30134;DHT22;16946;49.984;10.672;2023-02-26T00:20:11;-1.60;99.90
30134;DHT22;16946;49.984;10.672;2023-02-26T00:20:42;-1.50;99.90
30134;DHT22;16946;49.984;10.672;2023-02-26T00:21:18;-1.50;99.90
30134;DHT22;16946;49.984;10.672;2023-02-26T00:21:48;-1.50;99.90
30134;DHT22;16946;49.984;10.672;2023-02-26T00:22:20;-1.50;99.90
30134;DHT22;16946;49.984;10.672;2023-02-26T00:22:51;-1.50;99.90
30134;DHT22;16946;49.984;10.672;2023-02-26T00:23:22;-1.50;99.90
30134;DHT22;16946;49.984;10.672;2023-02-26T00:23:53;-1.50;99.90
30134;DHT22;16946;49.984;10.672;2023-02-26T00:24:24;-1.50;99.90
30134;DHT22;16946;49.984;10.672;2023-02-26T00:24:55;-1.50;99.90
30134;DHT22;16946;49.984;10.672;2023-02-26T00:25:25;-1.60;99.90
30134;DHT22;16946;49.984;10.672;2023-02-26T00:25:57;-1.60;99.90
30134;DHT22;16946;49.984;10.672;2023-02-26T00:26:29;-1.60;99.90
30134;DHT22;16946;49.984;10.672;2023-02-26T00:27:00;-1.60;99.90
30134;DHT22;16946;49.984;10.672;2023-02-26T00:27:30;-1.60;99.90
30134;DHT22;16946;49.984;10.672;2023-02-26T00:28:01;-1.60;99.90
30134;DHT22;16946;49.984;10.672;2023-02-26T00:28:32;-1.60;99.90
30134;DHT22;16946;49.984;10.672;2023-02-26T00:29:03;-1.60;99.90
30134;DHT22;16946;49.984;10.672;2023-02-26T00:29:34;-1.60;99.90
30134;DHT22;16946;49.984;10.672;2023-02-26T00:30:07;-1.70;99.90
30134;DHT22;16946;49.984;10.672;2023-02-26T00:30:38;-1.70;99.90
30134;DHT22;16946;49.984;10.672;2023-02-26T00:31:09;-1.70;99.90
30134;DHT22;16946;49.984;10.672;2023-02-26T00:31:40;-1.70;99.90
30134;DHT22;16946;49.984;10.672;2023-02-26T00:32:11;-1.70;99.90
30134;DHT22;16946;49.984;10.672;2023-02-26T00:32:42;-1.70;99.90
30134;DHT22;16946;49.984;10.672;2023-02-26T00:33:14;-1.70;99.90
30134;DHT22;16946;49.984;10.672;2023-02-26T00:33:45;-1.70;99.90
30134;DHT22;16946;49.984;10.672;2023-02-26T00:34:16;-1.70;99.90
30134;DHT22;16946;49.984;10.672;2023-02-26T00:34:47;-1.70;99.90
30134;DHT22;16946;49.984;10.672;2023-02-26T00:35:18;-1.70;99.90
30134;DHT22;16946;49.984;10.672;2023-02-26T00:35:56;-1.60;99.90
30134;DHT22;16946;49.984;10.672;2023-02-26T00:36:53;-1.60;99.90
30134;DHT22;16946;49.984;10.672;2023-02-26T00:37:37;-1.60;99.90
30134;DHT22;16946;49.984;10.672;2023-02-26T00:38:12;-1.50;99.90
30134;DHT22;16946;49.984;10.672;2023-02-26T00:39:47;-1.50;99.90
30134;DHT22;16946;49.984;10.672;2023-02-26T00:40:34;-1.50;99.90
30134;DHT22;16946;49.984;10.672;2023-02-26T00:41:05;-1.40;99.90
30134;DHT22;16946;49.984;10.672;2023-02-26T00:41:38;-1.30;99.90
30134;DHT22;16946;49.984;10.672;2023-02-26T00:42:08;-1.30;99.90
30134;DHT22;16946;49.984;10.672;2023-02-26T00:42:39;-1.30;99.90
30134;DHT22;16946;49.984;10.672;2023-02-26T00:43:19;-1.30;99.90
30134;DHT22;16946;49.984;10.672;2023-02-26T00:43:52;-1.30;99.90
30134;DHT22;16946;49.984;10.672;2023-02-26T00:44:22;-1.30;99.90
30134;DHT22;16946;49.984;10.672;2023-02-26T00:44:53;-1.30;99.90
30134;DHT22;16946;49.984;10.672;2023-02-26T00:45:24;-1.30;99.90
30134;DHT22;16946;49.984;10.672;2023-02-26T00:46:59;-1.30;99.90
30134;DHT22;16946;49.984;10.672;2023-02-26T00:48:03;-1.30;99.90
30134;DHT22;16946;49.984;10.672;2023-02-26T00:50:20;-1.40;99.90
30134;DHT22;16946;49.984;10.672;2023-02-26T00:51:22;-1.50;99.90
30134;DHT22;16946;49.984;10.672;2023-02-26T00:52:01;-1.40;99.90
30134;DHT22;16946;49.984;10.672;2023-02-26T00:52:45;-1.50;99.90
30134;DHT22;16946;49.984;10.672;2023-02-26T00:53:28;-1.60;99.90
30134;DHT22;16946;49.984;10.672;2023-02-26T00:54:44;-1.70;99.90
30134;DHT22;16946;49.984;10.672;2023-02-26T00:55:15;-1.70;99.90
30134;DHT22;16946;49.984;10.672;2023-02-26T00:55:46;-1.80;99.90
30134;DHT22;16946;49.984;10.672;2023-02-26T00:56:16;-1.80;99.90
30134;DHT22;16946;49.984;10.672;2023-02-26T00:56:48;-1.80;99.90
30134;DHT22;16946;49.984;10.672;2023-02-26T00:57:19;-1.80;99.90
30134;DHT22;16946;49.984;10.672;2023-02-26T00:57:49;-1.80;99.90
30134;DHT22;16946;49.984;10.672;2023-02-26T00:58:20;-1.80;99.90
30134;DHT22;16946;49.984;10.672;2023-02-26T00:58:50;-1.70;99.90
30134;DHT22;16946;49.984;10.672;2023-02-26T00:59:21;-1.70;99.90
30134;DHT22;16946;49.984;10.672;2023-02-26T00:59:52;-1.70;99.90
30134;DHT22;16946;49.984;10.672;2023-02-26T01:00:23;-1.70;99.90
30134;DHT22;16946;49.984;10.672;2023-02-26T01:00:53;-1.70;99.90
30134;DHT22;16946;49.984;10.672;2023-02-26T01:01:24;-1.70;99.90
30134;DHT22;16946;49.984;10.672;2023-02-26T01:01:54;-1.70;99.90
30134;DHT22;16946;49.984;10.672;2023-02-26T01:02:25;-1.70;99.90
30134;DHT22;16946;49.984;10.672;2023-02-26T01:02:56;-1.80;99.90
30134;DHT22;16946;49.984;10.672;2023-02-26T01:03:27;-1.80;99.90
30134;DHT22;16946;49.984;10.672;2023-02-26T01:03:58;-1.80;99.90
30134;DHT22;16946;49.984;10.672;2023-02-26T01:04:29;-1.80;99.90
30134;DHT22;16946;49.984;10.672;2023-02-26T01:04:59;-1.90;99.90
30134;DHT22;16946;49.984;10.672;2023-02-26T01:05:30;-1.90;99.90
30134;DHT22;16946;49.984;10.672;2023-02-26T01:06:01;-1.90;99.90
30134;DHT22;16946;49.984;10.672;2023-02-26T01:06:34;-1.90;99.90
30134;DHT22;16946;49.984;10.672;2023-02-26T01:07:08;-2.00;99.90
30134;DHT22;16946;49.984;10.672;2023-02-26T01:09:13;-2.00;99.90
30134;DHT22;16946;49.984;10.672;2023-02-26T01:09:45;-2.00;99.90
30134;DHT22;16946;49.984;10.672;2023-02-26T01:10:16;-2.00;99.90
30134;DHT22;16946;49.984;10.672;2023-02-26T01:10:47;-1.90;99.90
30134;DHT22;16946;49.984;10.672;2023-02-26T01:11:18;-1.90;99.90
30134;DHT22;16946;49.984;10.672;2023-02-26T01:11:49;-1.90;99.90
30134;DHT22;16946;49.984;10.672;2023-02-26T01:12:19;-1.90;99.90
30134;DHT22;16946;49.984;10.672;2023-02-26T01:12:51;-1.90;99.90
30134;DHT22;16946;49.984;10.672;2023-02-26T01:13:21;-1.90;99.90
30134;DHT22;16946;49.984;10.672;2023-02-26T01:13:52;-1.80;99.90
30134;DHT22;16946;49.984;10.672;2023-02-26T01:14:23;-1.80;99.90
30134;DHT22;16946;49.984;10.672;2023-02-26T01:14:54;-1.80;99.90
30134;DHT22;16946;49.984;10.672;2023-02-26T01:15:25;-1.80;99.90
30134;DHT22;16946;49.984;10.672;2023-02-26T01:16:04;-1.80;99.90
30134;DHT22;16946;49.984;10.672;2023-02-26T01:16:58;-1.80;99.90
30134;DHT22;16946;49.984;10.672;2023-02-26T01:18:15;-1.70;99.90
30134;DHT22;16946;49.984;10.672;2023-02-26T01:18:58;-1.80;99.90
30134;DHT22;16946;49.984;10.672;2023-02-26T01:19:53;-1.70;99.90
30134;DHT22;16946;49.984;10.672;2023-02-26T01:20:41;-1.70;99.90
30134;DHT22;16946;49.984;10.672;2023-02-26T01:21:19;-1.70;99.90
30134;DHT22;16946;49.984;10.672;2023-02-26T01:21:56;-1.70;99.90
30134;DHT22;16946;49.984;10.672;2023-02-26T01:22:40;-1.70;99.90
30134;DHT22;16946;49.984;10.672;2023-02-26T01:23:15;-1.70;99.90
30134;DHT22;16946;49.984;10.672;2023-02-26T01:23:49;-1.70;99.90
30134;DHT22;16946;49.984;10.672;2023-02-26T01:24:22;-1.80;99.90
30134;DHT22;16946;49.984;10.672;2023-02-26T01:25:01;-1.70;99.90
30134;DHT22;16946;49.984;10.672;2023-02-26T01:26:22;-1.70;99.90
30134;DHT22;16946;49.984;10.672;2023-02-26T01:26:53;-1.80;99.90
30134;DHT22;16946;49.984;10.672;2023-02-26T01:27:24;-1.80;99.90
30134;DHT22;16946;49.984;10.672;2023-02-26T01:27:54;-1.80;99.90
30134;DHT22;16946;49.984;10.672;2023-02-26T01:28:27;-1.80;99.90
30134;DHT22;16946;49.984;10.672;2023-02-26T01:28:57;-1.80;99.90
30134;DHT22;16946;49.984;10.672;2023-02-26T01:29:28;-1.80;99.90
30134;DHT22;16946;49.984;10.672;2023-02-26T01:29:59;-1.80;99.90
30134;DHT22;16946;49.984;10.672;2023-02-26T01:30:30;-1.80;99.90
30134;DHT22;16946;49.984;10.672;2023-02-26T01:31:02;-1.80;99.90
30134;DHT22;16946;49.984;10.672;2023-02-26T01:32:37;-1.80;99.90
30134;DHT22;16946;49.984;10.672;2023-02-26T01:33:34;-1.80;99.90
30134;DHT22;16946;49.984;10.672;2023-02-26T01:34:31;-1.80;99.90
30134;DHT22;16946;49.984;10.672;2023-02-26T01:35:21;-1.80;99.90
30134;DHT22;16946;49.984;10.672;2023-02-26T01:36:00;-1.80;99.90
30134;DHT22;16946;49.984;10.672;2023-02-26T01:36:37;-1.80;99.90
30134;DHT22;16946;49.984;10.672;2023-02-26T01:37:26;-1.80;99.90
30134;DHT22;16946;49.984;10.672;2023-02-26T01:38:51;-1.90;99.90
30134;DHT22;16946;49.984;10.672;2023-02-26T01:39:39;-1.90;99.90
30134;DHT22;16946;49.984;10.672;2023-02-26T01:40:33;-1.90;99.90
30134;DHT22;16946;49.984;10.672;2023-02-26T01:41:13;-1.90;99.90
30134;DHT22;16946;49.984;10.672;2023-02-26T01:41:50;-1.90;99.90
30134;DHT22;16946;49.984;10.672;2023-02-26T01:42:24;-2.00;99.90
30134;DHT22;16946;49.984;10.672;2023-02-26T01:43:02;-1.90;99.90
30134;DHT22;16946;49.984;10.672;2023-02-26T01:44:47;-2.00;99.90
30134;DHT22;16946;49.984;10.672;2023-02-26T01:45:28;-2.00;99.90
30134;DHT22;16946;49.984;10.672;2023-02-26T01:46:17;-2.00;99.90
30134;DHT22;16946;49.984;10.672;2023-02-26T01:47:14;-2.00;99.90
30134;DHT22;16946;49.984;10.672;2023-02-26T01:47:57;-2.00;99.90
30134;DHT22;16946;49.984;10.672;2023-02-26T01:48:36;-2.10;99.90
30134;DHT22;16946;49.984;10.672;2023-02-26T01:49:12;-2.10;99.90
30134;DHT22;16946;49.984;10.672;2023-02-26T01:49:44;-2.00;99.90
30134;DHT22;16946;49.984;10.672;2023-02-26T01:50:23;-2.00;99.90
30134;DHT22;16946;49.984;10.672;2023-02-26T01:50:59;-2.00;99.90
30134;DHT22;16946;49.984;10.672;2023-02-26T01:51:48;-2.00;99.90
30134;DHT22;16946;49.984;10.672;2023-02-26T01:53:21;-2.00;99.90
30134;DHT22;16946;49.984;10.672;2023-02-26T01:53:52;-2.00;99.90
30134;DHT22;16946;49.984;10.672;2023-02-26T01:54:27;-2.00;99.90
30134;DHT22;16946;49.984;10.672;2023-02-26T01:54:58;-2.00;99.90
30134;DHT22;16946;49.984;10.672;2023-02-26T01:55:29;-2.00;99.90
30134;DHT22;16946;49.984;10.672;2023-02-26T01:56:03;-2.00;99.90
30134;DHT22;16946;49.984;10.672;2023-02-26T01:56:36;-2.00;99.90
30134;DHT22;16946;49.984;10.672;2023-02-26T01:57:11;-2.00;99.90
30134;DHT22;16946;49.984;10.672;2023-02-26T01:57:44;-2.00;99.90
30134;DHT22;16946;49.984;10.672;2023-02-26T01:58:14;-2.00;99.90
30134;DHT22;16946;49.984;10.672;2023-02-26T01:58:47;-2.00;99.90
30134;DHT22;16946;49.984;10.672;2023-02-26T01:59:18;-2.00;99.90
30134;DHT22;16946;49.984;10.672;2023-02-26T01:59:53;-2.00;99.90
30134;DHT22;16946;49.984;10.672;2023-02-26T02:00:24;-2.00;99.90
30134;DHT22;16946;49.984;10.672;2023-02-26T02:00:54;-2.00;99.90
30134;DHT22;16946;49.984;10.672;2023-02-26T02:01:25;-2.00;99.90
30134;DHT22;16946;49.984;10.672;2023-02-26T02:01:57;-2.00;99.90
30134;DHT22;16946;49.984;10.672;2023-02-26T02:02:28;-2.00;99.90
30134;DHT22;16946;49.984;10.672;2023-02-26T02:03:00;-2.00;99.90
30134;DHT22;16946;49.984;10.672;2023-02-26T02:03:34;-2.00;99.90
30134;DHT22;16946;49.984;10.672;2023-02-26T02:04:09;-2.00;99.90
30134;DHT22;16946;49.984;10.672;2023-02-26T02:04:41;-2.00;99.90
30134;DHT22;16946;49.984;10.672;2023-02-26T02:05:38;-2.00;99.90
30134;DHT22;16946;49.984;10.672;2023-02-26T02:06:17;-2.00;99.90
30134;DHT22;16946;49.984;10.672;2023-02-26T02:06:49;-2.00;99.90
30134;DHT22;16946;49.984;10.672;2023-02-26T02:07:19;-2.10;99.90
30134;DHT22;16946;49.984;10.672;2023-02-26T02:07:50;-2.10;99.90
30134;DHT22;16946;49.984;10.672;2023-02-26T02:08:21;-2.10;99.90
30134;DHT22;16946;49.984;10.672;2023-02-26T02:08:52;-2.10;99.90
30134;DHT22;16946;49.984;10.672;2023-02-26T02:09:22;-2.10;99.90
30134;DHT22;16946;49.984;10.672;2023-02-26T02:09:53;-2.10;99.90
30134;DHT22;16946;49.984;10.672;2023-02-26T02:10:24;-2.20;99.90
30134;DHT22;16946;49.984;10.672;2023-02-26T02:10:54;-2.20;99.90
30134;DHT22;16946;49.984;10.672;2023-02-26T02:11:25;-2.20;99.90
30134;DHT22;16946;49.984;10.672;2023-02-26T02:12:34;-2.20;99.90
30134;DHT22;16946;49.984;10.672;2023-02-26T02:14:21;-2.30;99.90
30134;DHT22;16946;49.984;10.672;2023-02-26T02:15:15;-2.30;99.90
30134;DHT22;16946;49.984;10.672;2023-02-26T02:16:11;-2.40;99.90
30134;DHT22;16946;49.984;10.672;2023-02-26T02:17:02;-2.40;99.90
30134;DHT22;16946;49.984;10.672;2023-02-26T02:18:00;-2.30;99.90
30134;DHT22;16946;49.984;10.672;2023-02-26T02:18:46;-2.30;99.90
30134;DHT22;16946;49.984;10.672;2023-02-26T02:21:44;-2.30;99.90
30134;DHT22;16946;49.984;10.672;2023-02-26T02:23:57;-2.30;99.90
30134;DHT22;16946;49.984;10.672;2023-02-26T02:25:39;-2.30;99.90
30134;DHT22;16946;49.984;10.672;2023-02-26T02:26:58;-2.30;99.90
30134;DHT22;16946;49.984;10.672;2023-02-26T02:28:02;-2.30;99.90
30134;DHT22;16946;49.984;10.672;2023-02-26T02:30:21;-2.40;99.90
30134;DHT22;16946;49.984;10.672;2023-02-26T02:31:19;-2.40;99.90
30134;DHT22;16946;49.984;10.672;2023-02-26T02:31:58;-2.40;99.90
30134;DHT22;16946;49.984;10.672;2023-02-26T02:32:50;-2.40;99.90
30134;DHT22;16946;49.984;10.672;2023-02-26T02:33:27;-2.30;99.90
30134;DHT22;16946;49.984;10.672;2023-02-26T02:35:24;-2.30;99.90
30134;DHT22;16946;49.984;10.672;2023-02-26T02:36:00;-2.40;99.90
30134;DHT22;16946;49.984;10.672;2023-02-26T02:36:50;-2.40;99.90
30134;DHT22;16946;49.984;10.672;2023-02-26T02:37:40;-2.40;99.90
30134;DHT22;16946;49.984;10.672;2023-02-26T02:38:14;-2.40;99.90
30134;DHT22;16946;49.984;10.672;2023-02-26T02:38:53;-2.40;99.90
30134;DHT22;16946;49.984;10.672;2023-02-26T02:39:29;-2.40;99.90
30134;DHT22;16946;49.984;10.672;2023-02-26T02:40:05;-2.40;99.90
30134;DHT22;16946;49.984;10.672;2023-02-26T02:40:42;-2.50;99.90
30134;DHT22;16946;49.984;10.672;2023-02-26T02:41:36;-2.50;99.90
30134;DHT22;16946;49.984;10.672;2023-02-26T02:43:15;-2.50;99.90
30134;DHT22;16946;49.984;10.672;2023-02-26T02:43:46;-2.50;99.90
30134;DHT22;16946;49.984;10.672;2023-02-26T02:44:19;-2.60;99.90
30134;DHT22;16946;49.984;10.672;2023-02-26T02:44:59;-2.50;99.90
30134;DHT22;16946;49.984;10.672;2023-02-26T02:45:59;-2.60;99.90
30134;DHT22;16946;49.984;10.672;2023-02-26T02:46:29;-2.60;99.90
30134;DHT22;16946;49.984;10.672;2023-02-26T02:47:03;-2.60;99.90
30134;DHT22;16946;49.984;10.672;2023-02-26T02:47:36;-2.60;99.90
30134;DHT22;16946;49.984;10.672;2023-02-26T02:49:11;-2.50;99.90
30134;DHT22;16946;49.984;10.672;2023-02-26T02:49:47;-2.60;99.90
30134;DHT22;16946;49.984;10.672;2023-02-26T02:50:28;-2.50;99.90
30134;DHT22;16946;49.984;10.672;2023-02-26T02:51:11;-2.50;99.90
30134;DHT22;16946;49.984;10.672;2023-02-26T02:51:55;-2.50;99.90
30134;DHT22;16946;49.984;10.672;2023-02-26T02:52:44;-2.40;99.90
30134;DHT22;16946;49.984;10.672;2023-02-26T02:53:22;-2.40;99.90
30134;DHT22;16946;49.984;10.672;2023-02-26T02:54:06;-2.40;99.90
30134;DHT22;16946;49.984;10.672;2023-02-26T02:54:55;-2.30;99.90
30134;DHT22;16946;49.984;10.672;2023-02-26T02:55:35;-2.20;99.90
30134;DHT22;16946;49.984;10.672;2023-02-26T02:56:10;-2.20;99.90
30134;DHT22;16946;49.984;10.672;2023-02-26T02:57:03;-2.20;99.90
30134;DHT22;16946;49.984;10.672;2023-02-26T02:57:43;-2.30;99.90
30134;DHT22;16946;49.984;10.672;2023-02-26T02:58:20;-2.30;99.90
30134;DHT22;16946;49.984;10.672;2023-02-26T02:59:17;-2.30;99.90
30134;DHT22;16946;49.984;10.672;2023-02-26T02:59:53;-2.30;99.90
30134;DHT22;16946;49.984;10.672;2023-02-26T03:00:25;-2.30;99.90
30134;DHT22;16946;49.984;10.672;2023-02-26T03:00:59;-2.30;99.90
30134;DHT22;16946;49.984;10.672;2023-02-26T03:01:32;-2.30;99.90
30134;DHT22;16946;49.984;10.672;2023-02-26T03:02:15;-2.30;99.90
30134;DHT22;16946;49.984;10.672;2023-02-26T03:03:59;-2.30;99.90
30134;DHT22;16946;49.984;10.672;2023-02-26T03:04:31;-2.40;99.90
30134;DHT22;16946;49.984;10.672;2023-02-26T03:05:02;-2.40;99.90
30134;DHT22;16946;49.984;10.672;2023-02-26T03:05:33;-2.40;99.90
30134;DHT22;16946;49.984;10.672;2023-02-26T03:06:04;-2.50;99.90
30134;DHT22;16946;49.984;10.672;2023-02-26T03:06:35;-2.50;99.90
30134;DHT22;16946;49.984;10.672;2023-02-26T03:07:05;-2.50;99.90
30134;DHT22;16946;49.984;10.672;2023-02-26T03:07:41;-2.50;99.90
30134;DHT22;16946;49.984;10.672;2023-02-26T03:08:16;-2.50;99.90
30134;DHT22;16946;49.984;10.672;2023-02-26T03:08:49;-2.50;99.90
30134;DHT22;16946;49.984;10.672;2023-02-26T03:09:20;-2.50;99.90
30134;DHT22;16946;49.984;10.672;2023-02-26T03:09:51;-2.50;99.90
30134;DHT22;16946;49.984;10.672;2023-02-26T03:10:22;-2.50;99.90
30134;DHT22;16946;49.984;10.672;2023-02-26T03:10:52;-2.50;99.90
30134;DHT22;16946;49.984;10.672;2023-02-26T03:11:23;-2.50;99.90
30134;DHT22;16946;49.984;10.672;2023-02-26T03:11:54;-2.50;99.90
30134;DHT22;16946;49.984;10.672;2023-02-26T03:12:26;-2.50;99.90
30134;DHT22;16946;49.984;10.672;2023-02-26T03:13:00;-2.50;99.90
30134;DHT22;16946;49.984;10.672;2023-02-26T03:13:30;-2.50;99.90
30134;DHT22;16946;49.984;10.672;2023-02-26T03:14:02;-2.50;99.90
30134;DHT22;16946;49.984;10.672;2023-02-26T03:14:33;-2.50;99.90
30134;DHT22;16946;49.984;10.672;2023-02-26T03:15:05;-2.50;99.90
30134;DHT22;16946;49.984;10.672;2023-02-26T03:17:30;-2.50;99.90
30134;DHT22;16946;49.984;10.672;2023-02-26T03:19:10;-2.60;99.90
30134;DHT22;16946;49.984;10.672;2023-02-26T03:20:44;-2.70;99.90
30134;DHT22;16946;49.984;10.672;2023-02-26T03:21:45;-2.70;99.90
30134;DHT22;16946;49.984;10.672;2023-02-26T03:23:08;-2.70;99.90
30134;DHT22;16946;49.984;10.672;2023-02-26T03:24:01;-2.70;99.90
30134;DHT22;16946;49.984;10.672;2023-02-26T03:24:39;-2.70;99.90
30134;DHT22;16946;49.984;10.672;2023-02-26T03:27:34;-2.70;99.90
30134;DHT22;16946;49.984;10.672;2023-02-26T03:29:32;-2.70;99.90
30134;DHT22;16946;49.984;10.672;2023-02-26T03:30:56;-2.70;99.90
30134;DHT22;16946;49.984;10.672;2023-02-26T03:32:42;-2.60;99.90
30134;DHT22;16946;49.984;10.672;2023-02-26T03:34:21;-2.70;99.90
30134;DHT22;16946;49.984;10.672;2023-02-26T03:34:59;-2.70;99.90
30134;DHT22;16946;49.984;10.672;2023-02-26T03:35:48;-2.70;99.90
30134;DHT22;16946;49.984;10.672;2023-02-26T03:36:28;-2.70;99.90
30134;DHT22;16946;49.984;10.672;2023-02-26T03:37:17;-2.70;99.90
30134;DHT22;16946;49.984;10.672;2023-02-26T03:37:51;-2.70;99.90
30134;DHT22;16946;49.984;10.672;2023-02-26T03:38:30;-2.60;99.90
30134;DHT22;16946;49.984;10.672;2023-02-26T03:39:18;-2.60;99.90
30134;DHT22;16946;49.984;10.672;2023-02-26T03:39:54;-2.60;99.90
30134;DHT22;16946;49.984;10.672;2023-02-26T03:40:36;-2.50;99.90
30134;DHT22;16946;49.984;10.672;2023-02-26T03:41:15;-2.50;99.90
30134;DHT22;16946;49.984;10.672;2023-02-26T03:42:07;-2.50;99.90
30134;DHT22;16946;49.984;10.672;2023-02-26T03:42:53;-2.50;99.90
30134;DHT22;16946;49.984;10.672;2023-02-26T03:43:46;-2.50;99.90
30134;DHT22;16946;49.984;10.672;2023-02-26T03:44:46;-2.50;99.90
30134;DHT22;16946;49.984;10.672;2023-02-26T03:45:24;-2.50;99.90
30134;DHT22;16946;49.984;10.672;2023-02-26T03:46:00;-2.50;99.90
30134;DHT22;16946;49.984;10.672;2023-02-26T03:46:41;-2.50;99.90
30134;DHT22;16946;49.984;10.672;2023-02-26T03:47:15;-2.50;99.90
30134;DHT22;16946;49.984;10.672;2023-02-26T03:47:48;-2.50;99.90
30134;DHT22;16946;49.984;10.672;2023-02-26T03:48:26;-2.50;99.90
30134;DHT22;16946;49.984;10.672;2023-02-26T03:49:01;-2.50;99.90
30134;DHT22;16946;49.984;10.672;2023-02-26T03:49:39;-2.50;99.90
30134;DHT22;16946;49.984;10.672;2023-02-26T03:50:58;-2.50;99.90
30134;DHT22;16946;49.984;10.672;2023-02-26T03:51:30;-2.50;99.90
30134;DHT22;16946;49.984;10.672;2023-02-26T03:52:02;-2.50;99.90
30134;DHT22;16946;49.984;10.672;2023-02-26T03:52:38;-2.50;99.90
30134;DHT22;16946;49.984;10.672;2023-02-26T03:53:14;-2.50;99.90
30134;DHT22;16946;49.984;10.672;2023-02-26T03:54:03;-2.40;99.90
30134;DHT22;16946;49.984;10.672;2023-02-26T03:54:38;-2.40;99.90
30134;DHT22;16946;49.984;10.672;2023-02-26T03:55:16;-2.40;99.90
30134;DHT22;16946;49.984;10.672;2023-02-26T03:56:02;-2.40;99.90
30134;DHT22;16946;49.984;10.672;2023-02-26T03:56:47;-2.30;99.90
30134;DHT22;16946;49.984;10.672;2023-02-26T03:57:18;-2.30;99.90
30134;DHT22;16946;49.984;10.672;2023-02-26T03:57:48;-2.30;99.90
30134;DHT22;16946;49.984;10.672;2023-02-26T03:58:19;-2.30;99.90
30134;DHT22;16946;49.984;10.672;2023-02-26T03:58:51;-2.30;99.90
30134;DHT22;16946;49.984;10.672;2023-02-26T03:59:22;-2.30;99.90
30134;DHT22;16946;49.984;10.672;2023-02-26T03:59:53;-2.30;99.90
30134;DHT22;16946;49.984;10.672;2023-02-26T04:00:25;-2.30;99.90
30134;DHT22;16946;49.984;10.672;2023-02-26T04:01:05;-2.30;99.90
30134;DHT22;16946;49.984;10.672;2023-02-26T04:02:28;-2.30;99.90
30134;DHT22;16946;49.984;10.672;2023-02-26T04:03:25;-2.30;99.90
30134;DHT22;16946;49.984;10.672;2023-02-26T04:04:01;-2.30;99.90
30134;DHT22;16946;49.984;10.672;2023-02-26T04:04:46;-2.20;99.90
30134;DHT22;16946;49.984;10.672;2023-02-26T04:05:21;-2.20;99.90
30134;DHT22;16946;49.984;10.672;2023-02-26T04:05:54;-2.20;99.90
30134;DHT22;16946;49.984;10.672;2023-02-26T04:06:26;-2.20;99.90
30134;DHT22;16946;49.984;10.672;2023-02-26T04:06:57;-2.20;99.90
30134;DHT22;16946;49.984;10.672;2023-02-26T04:07:28;-2.20;99.90
30134;DHT22;16946;49.984;10.672;2023-02-26T04:07:58;-2.30;99.90
30134;DHT22;16946;49.984;10.672;2023-02-26T04:08:30;-2.30;99.90
30134;DHT22;16946;49.984;10.672;2023-02-26T04:09:02;-2.30;99.90
30134;DHT22;16946;49.984;10.672;2023-02-26T04:09:33;-2.30;99.90
30134;DHT22;16946;49.984;10.672;2023-02-26T04:10:03;-2.20;99.90
30134;DHT22;16946;49.984;10.672;2023-02-26T04:10:40;-2.20;99.90
30134;DHT22;16946;49.984;10.672;2023-02-26T04:11:15;-2.20;99.90
30134;DHT22;16946;49.984;10.672;2023-02-26T04:11:48;-2.20;99.90
30134;DHT22;16946;49.984;10.672;2023-02-26T04:12:26;-2.20;99.90
30134;DHT22;16946;49.984;10.672;2023-02-26T04:13:01;-2.10;99.90
30134;DHT22;16946;49.984;10.672;2023-02-26T04:13:32;-2.10;99.90
30134;DHT22;16946;49.984;10.672;2023-02-26T04:14:02;-2.10;99.90
30134;DHT22;16946;49.984;10.672;2023-02-26T04:14:33;-2.00;99.90
30134;DHT22;16946;49.984;10.672;2023-02-26T04:15:04;-2.00;99.90
30134;DHT22;16946;49.984;10.672;2023-02-26T04:15:34;-2.00;99.90
30134;DHT22;16946;49.984;10.672;2023-02-26T04:16:05;-2.00;99.90
30134;DHT22;16946;49.984;10.672;2023-02-26T04:16:36;-2.00;99.90
30134;DHT22;16946;49.984;10.672;2023-02-26T04:17:06;-2.00;99.90
30134;DHT22;16946;49.984;10.672;2023-02-26T04:17:37;-1.90;99.90
30134;DHT22;16946;49.984;10.672;2023-02-26T04:18:07;-1.90;99.90
30134;DHT22;16946;49.984;10.672;2023-02-26T04:18:38;-1.90;99.90
30134;DHT22;16946;49.984;10.672;2023-02-26T04:19:10;-1.80;99.90
30134;DHT22;16946;49.984;10.672;2023-02-26T04:19:40;-1.80;99.90
30134;DHT22;16946;49.984;10.672;2023-02-26T04:20:11;-1.80;99.90
30134;DHT22;16946;49.984;10.672;2023-02-26T04:20:41;-1.80;99.90
30134;DHT22;16946;49.984;10.672;2023-02-26T04:21:19;-1.80;99.90
30134;DHT22;16946;49.984;10.672;2023-02-26T04:21:50;-1.80;99.90
30134;DHT22;16946;49.984;10.672;2023-02-26T04:22:20;-1.80;99.90